sensor_id;sensor_type;location;lat;lon;timestamp;noise_LAeq;noise_LA_min;noise_LA_max;noise_LA01;noise_LA95
67310;Laerm;65444;51.438;5.982;2023-11-25T00:00:09;40.32;32.99;50.63;;
67310;Laerm;65444;51.438;5.982;2023-11-25T00:00:21;42.94;34.35;51.25;;
67310;Laerm;65444;51.438;5.982;2023-11-25T00:00:32;36.07;32.38;40.64;;
67310;Laerm;65444;51.438;5.982;2023-11-25T00:00:42;36.18;31.94;49.75;;
67310;Laerm;65444;51.438;5.982;2023-11-25T00:00:54;34.75;31.75;44.92;;
67310;Laerm;65444;51.438;5.982;2023-11-25T00:01:08;34.56;32.03;45.89;;
67310;Laerm;65444;51.438;5.982;2023-11-25T00:01:22;33.05;31.43;36.92;;
67310;Laerm;65444;51.438;5.982;2023-11-25T00:01:32;33.66;31.32;37.84;;
67310;Laerm;65444;51.438;5.982;2023-11-25T00:01:43;34.27;32.35;40.71;;
67310;Laerm;65444;51.438;5.982;2023-11-25T00:01:53;34.43;32.15;41.69;;
67310;Laerm;65444;51.438;5.982;2023-11-25T00:02:04;34.41;32.30;41.60;;
67310;Laerm;65444;51.438;5.982;2023-11-25T00:02:14;36.83;32.26;48.43;;
67310;Laerm;65444;51.438;5.982;2023-11-25T00:02:25;36.37;31.27;46.31;;
67310;Laerm;65444;51.438;5.982;2023-11-25T00:02:35;34.22;32.00;43.75;;
67310;Laerm;65444;51.438;5.982;2023-11-25T00:02:49;33.62;31.43;35.66;;
67310;Laerm;65444;51.438;5.982;2023-11-25T00:03:05;34.58;31.74;40.25;;
67310;Laerm;65444;51.438;5.982;2023-11-25T00:03:16;36.64;33.06;53.23;;
67310;Laerm;65444;51.438;5.982;2023-11-25T00:03:26;37.13;33.85;43.80;;
67310;Laerm;65444;51.438;5.982;2023-11-25T00:03:38;33.04;31.45;34.74;;
67310;Laerm;65444;51.438;5.982;2023-11-25T00:03:48;34.37;31.78;38.65;;
67310;Laerm;65444;51.438;5.982;2023-11-25T00:04:02;38.59;33.29;44.79;;
67310;Laerm;65444;51.438;5.982;2023-11-25T00:04:13;35.60;32.28;39.27;;
67310;Laerm;65444;51.438;5.982;2023-11-25T00:04:24;32.99;31.27;40.70;;
67310;Laerm;65444;51.438;5.982;2023-11-25T00:04:36;32.60;31.08;35.40;;
67310;Laerm;65444;51.438;5.982;2023-11-25T00:04:47;34.60;32.04;38.52;;
67310;Laerm;65444;51.438;5.982;2023-11-25T00:04:58;36.95;34.25;40.13;;
67310;Laerm;65444;51.438;5.982;2023-11-25T00:06:00;35.04;32.32;40.60;;
67310;Laerm;65444;51.438;5.982;2023-11-25T00:06:10;39.78;33.80;46.07;;
67310;Laerm;65444;51.438;5.982;2023-11-25T00:06:21;35.10;33.18;38.69;;
67310;Laerm;65444;51.438;5.982;2023-11-25T00:06:31;34.75;32.39;38.44;;
67310;Laerm;65444;51.438;5.982;2023-11-25T00:06:42;34.99;32.20;39.95;;
67310;Laerm;65444;51.438;5.982;2023-11-25T00:06:53;33.79;31.62;40.38;;
67310;Laerm;65444;51.438;5.982;2023-11-25T00:07:04;39.30;33.98;45.27;;
67310;Laerm;65444;51.438;5.982;2023-11-25T00:07:17;41.48;37.27;46.55;;
67310;Laerm;65444;51.438;5.982;2023-11-25T00:07:30;41.30;36.97;46.52;;
67310;Laerm;65444;51.438;5.982;2023-11-25T00:07:43;38.13;34.20;43.78;;
67310;Laerm;65444;51.438;5.982;2023-11-25T00:08:03;36.82;34.66;42.11;;
67310;Laerm;65444;51.438;5.982;2023-11-25T00:08:13;41.02;34.31;48.70;;
67310;Laerm;65444;51.438;5.982;2023-11-25T00:08:24;35.65;32.98;40.45;;
67310;Laerm;65444;51.438;5.982;2023-11-25T00:08:35;36.26;32.45;45.39;;
67310;Laerm;65444;51.438;5.982;2023-11-25T00:08:45;47.27;33.28;58.67;;
67310;Laerm;65444;51.438;5.982;2023-11-25T00:09:01;40.72;33.25;55.36;;
67310;Laerm;65444;51.438;5.982;2023-11-25T00:09:12;33.40;31.19;40.77;;
67310;Laerm;65444;51.438;5.982;2023-11-25T00:09:26;33.26;31.41;37.00;;
67310;Laerm;65444;51.438;5.982;2023-11-25T00:09:36;34.59;32.90;36.56;;
67310;Laerm;65444;51.438;5.982;2023-11-25T00:09:50;35.09;32.72;37.49;;
67310;Laerm;65444;51.438;5.982;2023-11-25T00:10:01;35.42;32.56;41.16;;
67310;Laerm;65444;51.438;5.982;2023-11-25T00:10:13;36.19;34.02;39.43;;
67310;Laerm;65444;51.438;5.982;2023-11-25T00:10:24;36.14;33.32;43.13;;
67310;Laerm;65444;51.438;5.982;2023-11-25T00:10:37;35.69;32.35;45.66;;
67310;Laerm;65444;51.438;5.982;2023-11-25T00:10:48;37.83;32.19;52.52;;
67310;Laerm;65444;51.438;5.982;2023-11-25T00:10:58;36.79;33.32;41.40;;
67310;Laerm;65444;51.438;5.982;2023-11-25T00:11:08;33.50;32.06;40.50;;
67310;Laerm;65444;51.438;5.982;2023-11-25T00:11:19;34.15;31.69;36.81;;
67310;Laerm;65444;51.438;5.982;2023-11-25T00:11:33;34.85;32.71;37.45;;
67310;Laerm;65444;51.438;5.982;2023-11-25T00:11:43;33.00;31.17;40.44;;
67310;Laerm;65444;51.438;5.982;2023-11-25T00:11:54;33.06;31.51;38.17;;
67310;Laerm;65444;51.438;5.982;2023-11-25T00:12:07;32.28;30.71;38.67;;
67310;Laerm;65444;51.438;5.982;2023-11-25T00:12:17;32.19;30.54;35.43;;
67310;Laerm;65444;51.438;5.982;2023-11-25T00:12:28;34.22;31.47;38.67;;
67310;Laerm;65444;51.438;5.982;2023-11-25T00:12:39;35.08;32.21;41.66;;
67310;Laerm;65444;51.438;5.982;2023-11-25T00:12:49;35.36;31.80;41.30;;
67310;Laerm;65444;51.438;5.982;2023-11-25T00:13:02;35.53;32.56;39.58;;
67310;Laerm;65444;51.438;5.982;2023-11-25T00:13:14;33.24;31.33;34.92;;
67310;Laerm;65444;51.438;5.982;2023-11-25T00:13:45;33.47;30.92;40.07;;
67310;Laerm;65444;51.438;5.982;2023-11-25T00:17:51;37.92;30.67;47.93;;
67310;Laerm;65444;51.438;5.982;2023-11-25T00:18:02;32.35;30.94;38.77;;
67310;Laerm;65444;51.438;5.982;2023-11-25T00:18:13;33.47;31.40;37.28;;
67310;Laerm;65444;51.438;5.982;2023-11-25T00:18:23;32.75;31.18;35.95;;
67310;Laerm;65444;51.438;5.982;2023-11-25T00:18:34;33.07;31.44;37.51;;
67310;Laerm;65444;51.438;5.982;2023-11-25T00:18:52;33.63;31.89;37.64;;
67310;Laerm;65444;51.438;5.982;2023-11-25T00:19:04;33.79;31.27;40.67;;
67310;Laerm;65444;51.438;5.982;2023-11-25T00:19:16;33.12;31.24;37.68;;
67310;Laerm;65444;51.438;5.982;2023-11-25T00:19:34;33.25;31.12;36.89;;
67310;Laerm;65444;51.438;5.982;2023-11-25T00:19:44;34.24;31.81;39.54;;
67310;Laerm;65444;51.438;5.982;2023-11-25T00:19:56;33.47;31.66;36.77;;
67310;Laerm;65444;51.438;5.982;2023-11-25T00:20:07;33.47;32.23;37.87;;
67310;Laerm;65444;51.438;5.982;2023-11-25T00:20:24;36.13;32.59;41.65;;
67310;Laerm;65444;51.438;5.982;2023-11-25T00:20:36;34.60;31.41;40.62;;
67310;Laerm;65444;51.438;5.982;2023-11-25T00:20:46;34.74;32.58;39.33;;
67310;Laerm;65444;51.438;5.982;2023-11-25T00:20:59;35.64;32.93;39.35;;
67310;Laerm;65444;51.438;5.982;2023-11-25T00:21:10;38.37;33.30;44.14;;
67310;Laerm;65444;51.438;5.982;2023-11-25T00:21:24;32.97;31.05;38.80;;
67310;Laerm;65444;51.438;5.982;2023-11-25T00:21:36;33.31;30.95;37.47;;
67310;Laerm;65444;51.438;5.982;2023-11-25T00:21:46;33.15;31.03;37.44;;
67310;Laerm;65444;51.438;5.982;2023-11-25T00:21:57;32.94;30.74;36.41;;
67310;Laerm;65444;51.438;5.982;2023-11-25T00:22:07;32.96;30.83;37.04;;
67310;Laerm;65444;51.438;5.982;2023-11-25T00:22:18;32.67;30.46;37.37;;
67310;Laerm;65444;51.438;5.982;2023-11-25T00:22:29;33.78;31.45;36.45;;
67310;Laerm;65444;51.438;5.982;2023-11-25T00:22:40;33.99;32.01;37.10;;
67310;Laerm;65444;51.438;5.982;2023-11-25T00:22:51;35.46;32.66;38.60;;
67310;Laerm;65444;51.438;5.982;2023-11-25T00:23:02;40.69;33.93;46.58;;
67310;Laerm;65444;51.438;5.982;2023-11-25T00:23:13;37.61;33.50;43.28;;
67310;Laerm;65444;51.438;5.982;2023-11-25T00:23:23;34.52;31.21;39.38;;
67310;Laerm;65444;51.438;5.982;2023-11-25T00:23:34;32.55;30.22;34.69;;
67310;Laerm;65444;51.438;5.982;2023-11-25T00:23:45;36.82;31.17;41.88;;
67310;Laerm;65444;51.438;5.982;2023-11-25T00:23:55;38.40;35.35;42.38;;
67310;Laerm;65444;51.438;5.982;2023-11-25T00:24:06;37.14;33.20;45.79;;
67310;Laerm;65444;51.438;5.982;2023-11-25T00:24:17;35.63;31.68;44.12;;
67310;Laerm;65444;51.438;5.982;2023-11-25T00:24:28;36.04;33.14;38.99;;
67310;Laerm;65444;51.438;5.982;2023-11-25T00:24:41;34.81;29.76;41.92;;
67310;Laerm;65444;51.438;5.982;2023-11-25T00:24:52;32.46;30.30;36.44;;
67310;Laerm;65444;51.438;5.982;2023-11-25T00:25:02;32.46;30.58;35.26;;
67310;Laerm;65444;51.438;5.982;2023-11-25T00:25:14;33.56;30.84;38.00;;
67310;Laerm;65444;51.438;5.982;2023-11-25T00:25:25;31.98;30.41;34.04;;
67310;Laerm;65444;51.438;5.982;2023-11-25T00:25:35;32.07;30.40;40.86;;
67310;Laerm;65444;51.438;5.982;2023-11-25T00:25:46;32.01;30.35;39.69;;
67310;Laerm;65444;51.438;5.982;2023-11-25T00:25:57;32.41;30.26;39.37;;
67310;Laerm;65444;51.438;5.982;2023-11-25T00:26:08;32.74;30.73;36.44;;
67310;Laerm;65444;51.438;5.982;2023-11-25T00:26:19;35.38;30.35;45.16;;
67310;Laerm;65444;51.438;5.982;2023-11-25T00:26:29;34.57;31.09;41.06;;
67310;Laerm;65444;51.438;5.982;2023-11-25T00:26:40;36.35;32.19;41.34;;
67310;Laerm;65444;51.438;5.982;2023-11-25T00:26:50;36.56;33.31;41.14;;
67310;Laerm;65444;51.438;5.982;2023-11-25T00:27:01;35.25;31.78;39.76;;
67310;Laerm;65444;51.438;5.982;2023-11-25T00:27:11;34.90;31.31;40.95;;
67310;Laerm;65444;51.438;5.982;2023-11-25T00:27:22;35.56;32.08;39.38;;
67310;Laerm;65444;51.438;5.982;2023-11-25T00:27:32;40.56;34.76;47.68;;
67310;Laerm;65444;51.438;5.982;2023-11-25T00:27:43;41.55;32.22;48.60;;
67310;Laerm;65444;51.438;5.982;2023-11-25T00:27:53;36.88;32.00;52.74;;
67310;Laerm;65444;51.438;5.982;2023-11-25T00:28:04;40.63;34.12;45.52;;
67310;Laerm;65444;51.438;5.982;2023-11-25T00:28:20;35.67;30.72;42.69;;
67310;Laerm;65444;51.438;5.982;2023-11-25T00:28:30;32.43;30.68;40.43;;
67310;Laerm;65444;51.438;5.982;2023-11-25T00:28:41;31.81;29.90;33.44;;
67310;Laerm;65444;51.438;5.982;2023-11-25T00:28:51;32.60;30.28;41.92;;
67310;Laerm;65444;51.438;5.982;2023-11-25T00:29:02;32.66;30.86;34.61;;
67310;Laerm;65444;51.438;5.982;2023-11-25T00:29:13;32.89;30.99;35.57;;
67310;Laerm;65444;51.438;5.982;2023-11-25T00:29:25;33.38;30.79;42.37;;
67310;Laerm;65444;51.438;5.982;2023-11-25T00:29:37;34.86;31.60;39.13;;
67310;Laerm;65444;51.438;5.982;2023-11-25T00:29:47;35.23;32.62;41.33;;
67310;Laerm;65444;51.438;5.982;2023-11-25T00:29:58;34.96;32.26;38.63;;
67310;Laerm;65444;51.438;5.982;2023-11-25T00:30:09;37.03;33.53;49.26;;
67310;Laerm;65444;51.438;5.982;2023-11-25T00:30:20;36.39;33.84;39.93;;
67310;Laerm;65444;51.438;5.982;2023-11-25T00:30:30;36.53;34.22;41.01;;
67310;Laerm;65444;51.438;5.982;2023-11-25T00:30:41;38.22;34.02;44.37;;
67310;Laerm;65444;51.438;5.982;2023-11-25T00:30:51;37.57;34.33;40.98;;
67310;Laerm;65444;51.438;5.982;2023-11-25T00:31:02;41.23;35.02;47.81;;
67310;Laerm;65444;51.438;5.982;2023-11-25T00:31:12;39.57;35.49;48.50;;
67310;Laerm;65444;51.438;5.982;2023-11-25T00:31:25;36.47;34.13;41.98;;
67310;Laerm;65444;51.438;5.982;2023-11-25T00:31:35;36.70;34.14;39.83;;
67310;Laerm;65444;51.438;5.982;2023-11-25T00:31:52;36.08;33.50;41.95;;
67310;Laerm;65444;51.438;5.982;2023-11-25T00:32:02;34.60;31.22;39.41;;
67310;Laerm;65444;51.438;5.982;2023-11-25T00:32:13;35.56;32.48;40.78;;
67310;Laerm;65444;51.438;5.982;2023-11-25T00:33:00;35.10;31.18;40.00;;
67310;Laerm;65444;51.438;5.982;2023-11-25T00:33:12;33.92;31.60;36.56;;
67310;Laerm;65444;51.438;5.982;2023-11-25T00:33:23;32.00;29.92;38.61;;
67310;Laerm;65444;51.438;5.982;2023-11-25T00:33:33;33.86;30.52;47.47;;
67310;Laerm;65444;51.438;5.982;2023-11-25T00:33:44;34.47;31.60;39.56;;
67310;Laerm;65444;51.438;5.982;2023-11-25T00:33:54;35.60;33.07;39.77;;
67310;Laerm;65444;51.438;5.982;2023-11-25T00:34:05;34.89;32.85;37.87;;
67310;Laerm;65444;51.438;5.982;2023-11-25T00:34:15;36.48;32.88;40.92;;
67310;Laerm;65444;51.438;5.982;2023-11-25T00:34:26;35.49;33.31;40.10;;
67310;Laerm;65444;51.438;5.982;2023-11-25T00:34:37;34.57;32.33;40.71;;
67310;Laerm;65444;51.438;5.982;2023-11-25T00:34:47;37.02;33.85;40.85;;
67310;Laerm;65444;51.438;5.982;2023-11-25T00:34:58;39.99;36.82;43.83;;
67310;Laerm;65444;51.438;5.982;2023-11-25T00:35:08;38.68;35.05;44.93;;
67310;Laerm;65444;51.438;5.982;2023-11-25T00:35:19;41.40;37.38;45.50;;
67310;Laerm;65444;51.438;5.982;2023-11-25T00:35:30;38.11;35.16;42.72;;
67310;Laerm;65444;51.438;5.982;2023-11-25T00:35:40;36.48;32.10;40.96;;
67310;Laerm;65444;51.438;5.982;2023-11-25T00:35:51;34.60;31.10;38.72;;
67310;Laerm;65444;51.438;5.982;2023-11-25T00:36:02;37.21;34.70;40.26;;
67310;Laerm;65444;51.438;5.982;2023-11-25T00:36:13;37.99;34.59;42.74;;
67310;Laerm;65444;51.438;5.982;2023-11-25T00:36:24;35.49;32.44;39.94;;
67310;Laerm;65444;51.438;5.982;2023-11-25T00:36:35;34.99;33.08;37.34;;
67310;Laerm;65444;51.438;5.982;2023-11-25T00:36:45;35.31;33.02;39.95;;
67310;Laerm;65444;51.438;5.982;2023-11-25T00:36:56;35.22;32.41;37.70;;
67310;Laerm;65444;51.438;5.982;2023-11-25T00:37:07;36.36;32.12;41.72;;
67310;Laerm;65444;51.438;5.982;2023-11-25T00:37:18;32.55;31.14;34.39;;
67310;Laerm;65444;51.438;5.982;2023-11-25T00:37:28;34.13;31.56;39.86;;
67310;Laerm;65444;51.438;5.982;2023-11-25T00:37:39;35.10;32.88;37.29;;
67310;Laerm;65444;51.438;5.982;2023-11-25T00:37:51;34.68;31.95;41.24;;
67310;Laerm;65444;51.438;5.982;2023-11-25T00:38:01;35.86;32.98;40.03;;
67310;Laerm;65444;51.438;5.982;2023-11-25T00:38:12;39.62;33.80;59.20;;
67310;Laerm;65444;51.438;5.982;2023-11-25T00:38:23;36.39;33.16;39.72;;
67310;Laerm;65444;51.438;5.982;2023-11-25T00:38:33;40.67;34.76;57.86;;
67310;Laerm;65444;51.438;5.982;2023-11-25T00:38:44;39.26;34.29;44.59;;
67310;Laerm;65444;51.438;5.982;2023-11-25T00:38:56;44.65;34.75;54.06;;
67310;Laerm;65444;51.438;5.982;2023-11-25T00:39:09;40.44;32.05;47.69;;
67310;Laerm;65444;51.438;5.982;2023-11-25T00:39:20;37.35;31.32;45.76;;
67310;Laerm;65444;51.438;5.982;2023-11-25T00:39:31;33.88;31.00;41.07;;
67310;Laerm;65444;51.438;5.982;2023-11-25T00:39:41;34.38;31.95;36.82;;
67310;Laerm;65444;51.438;5.982;2023-11-25T00:39:52;34.21;31.13;40.96;;
67310;Laerm;65444;51.438;5.982;2023-11-25T00:40:05;32.83;31.03;37.94;;
67310;Laerm;65444;51.438;5.982;2023-11-25T00:40:19;33.60;31.11;44.96;;
67310;Laerm;65444;51.438;5.982;2023-11-25T00:40:36;36.95;32.89;44.90;;
67310;Laerm;65444;51.438;5.982;2023-11-25T00:40:46;38.90;34.01;44.97;;
67310;Laerm;65444;51.438;5.982;2023-11-25T00:40:57;40.37;35.36;45.95;;
67310;Laerm;65444;51.438;5.982;2023-11-25T00:41:08;39.21;35.42;42.98;;
67310;Laerm;65444;51.438;5.982;2023-11-25T00:41:19;38.80;34.95;44.84;;
67310;Laerm;65444;51.438;5.982;2023-11-25T00:41:29;37.48;33.61;43.04;;
67310;Laerm;65444;51.438;5.982;2023-11-25T00:41:39;36.41;32.18;41.17;;
67310;Laerm;65444;51.438;5.982;2023-11-25T00:41:50;35.37;33.16;38.84;;
67310;Laerm;65444;51.438;5.982;2023-11-25T00:42:00;34.47;32.09;37.70;;
67310;Laerm;65444;51.438;5.982;2023-11-25T00:42:11;33.05;30.74;39.04;;
67310;Laerm;65444;51.438;5.982;2023-11-25T00:42:21;33.03;31.19;35.14;;
67310;Laerm;65444;51.438;5.982;2023-11-25T00:42:32;32.74;31.13;39.89;;
67310;Laerm;65444;51.438;5.982;2023-11-25T00:43:19;33.98;30.31;43.48;;
67310;Laerm;65444;51.438;5.982;2023-11-25T00:43:32;32.91;31.00;36.14;;
67310;Laerm;65444;51.438;5.982;2023-11-25T00:43:42;33.19;31.37;39.03;;
67310;Laerm;65444;51.438;5.982;2023-11-25T00:43:53;33.37;31.39;40.56;;
67310;Laerm;65444;51.438;5.982;2023-11-25T00:44:03;32.58;31.01;37.45;;
67310;Laerm;65444;51.438;5.982;2023-11-25T00:44:13;33.18;30.77;37.14;;
67310;Laerm;65444;51.438;5.982;2023-11-25T00:44:24;34.02;31.14;43.08;;
67310;Laerm;65444;51.438;5.982;2023-11-25T00:44:34;33.16;31.15;39.56;;
67310;Laerm;65444;51.438;5.982;2023-11-25T00:44:45;36.38;32.10;47.93;;
67310;Laerm;65444;51.438;5.982;2023-11-25T00:44:55;36.61;33.30;42.65;;
67310;Laerm;65444;51.438;5.982;2023-11-25T00:45:06;35.61;33.33;40.75;;
67310;Laerm;65444;51.438;5.982;2023-11-25T00:45:21;36.11;33.56;37.99;;
67310;Laerm;65444;51.438;5.982;2023-11-25T00:45:35;37.58;33.43;41.00;;
67310;Laerm;65444;51.438;5.982;2023-11-25T00:45:46;38.21;35.18;41.56;;
67310;Laerm;65444;51.438;5.982;2023-11-25T00:45:56;38.62;34.90;41.75;;
67310;Laerm;65444;51.438;5.982;2023-11-25T00:46:06;39.36;34.61;43.31;;
67310;Laerm;65444;51.438;5.982;2023-11-25T00:46:17;40.24;34.72;51.31;;
67310;Laerm;65444;51.438;5.982;2023-11-25T00:46:28;38.39;35.38;41.56;;
67310;Laerm;65444;51.438;5.982;2023-11-25T00:46:42;42.53;35.52;57.60;;
67310;Laerm;65444;51.438;5.982;2023-11-25T00:46:52;40.70;36.24;45.94;;
67310;Laerm;65444;51.438;5.982;2023-11-25T00:47:03;39.21;36.25;43.51;;
67310;Laerm;65444;51.438;5.982;2023-11-25T00:47:15;37.54;34.92;40.60;;
67310;Laerm;65444;51.438;5.982;2023-11-25T00:47:25;34.91;32.16;39.17;;
67310;Laerm;65444;51.438;5.982;2023-11-25T00:47:38;35.21;33.11;37.89;;
67310;Laerm;65444;51.438;5.982;2023-11-25T00:47:51;36.48;33.74;43.01;;
67310;Laerm;65444;51.438;5.982;2023-11-25T00:48:02;36.38;33.90;40.62;;
67310;Laerm;65444;51.438;5.982;2023-11-25T00:48:13;37.34;34.32;39.99;;
67310;Laerm;65444;51.438;5.982;2023-11-25T00:48:23;40.18;35.52;45.90;;
67310;Laerm;65444;51.438;5.982;2023-11-25T00:48:34;40.44;34.99;47.16;;
67310;Laerm;65444;51.438;5.982;2023-11-25T00:48:47;45.85;34.99;69.43;;
67310;Laerm;65444;51.438;5.982;2023-11-25T00:48:57;40.34;35.21;52.03;;
67310;Laerm;65444;51.438;5.982;2023-11-25T00:49:14;37.59;33.98;41.89;;
67310;Laerm;65444;51.438;5.982;2023-11-25T00:49:27;36.03;32.31;40.92;;
67310;Laerm;65444;51.438;5.982;2023-11-25T00:49:38;39.70;34.29;43.74;;
67310;Laerm;65444;51.438;5.982;2023-11-25T00:49:50;37.86;35.42;42.37;;
67310;Laerm;65444;51.438;5.982;2023-11-25T00:50:03;35.21;32.53;41.56;;
67310;Laerm;65444;51.438;5.982;2023-11-25T00:50:15;34.97;33.41;37.79;;
67310;Laerm;65444;51.438;5.982;2023-11-25T00:50:26;35.80;33.93;42.48;;
67310;Laerm;65444;51.438;5.982;2023-11-25T00:50:37;37.69;34.44;45.51;;
67310;Laerm;65444;51.438;5.982;2023-11-25T00:50:47;37.66;34.62;40.40;;
67310;Laerm;65444;51.438;5.982;2023-11-25T00:50:59;34.58;32.65;38.19;;
67310;Laerm;65444;51.438;5.982;2023-11-25T00:51:10;34.88;32.59;43.62;;
67310;Laerm;65444;51.438;5.982;2023-11-25T00:51:20;34.06;32.51;36.21;;
67310;Laerm;65444;51.438;5.982;2023-11-25T00:51:31;33.77;32.30;39.35;;
67310;Laerm;65444;51.438;5.982;2023-11-25T00:51:42;34.28;32.79;35.86;;
67310;Laerm;65444;51.438;5.982;2023-11-25T00:51:55;33.91;32.04;37.73;;
67310;Laerm;65444;51.438;5.982;2023-11-25T00:52:06;33.70;31.91;36.43;;
67310;Laerm;65444;51.438;5.982;2023-11-25T00:52:16;35.79;33.10;38.47;;
67310;Laerm;65444;51.438;5.982;2023-11-25T00:52:27;36.74;34.44;41.95;;
67310;Laerm;65444;51.438;5.982;2023-11-25T00:52:38;36.20;33.73;38.52;;
67310;Laerm;65444;51.438;5.982;2023-11-25T00:52:48;36.56;34.04;39.71;;
67310;Laerm;65444;51.438;5.982;2023-11-25T00:52:59;36.93;35.11;38.85;;
67310;Laerm;65444;51.438;5.982;2023-11-25T00:53:09;39.75;35.35;45.02;;
67310;Laerm;65444;51.438;5.982;2023-11-25T00:53:20;41.23;36.71;45.45;;
67310;Laerm;65444;51.438;5.982;2023-11-25T00:53:30;39.50;36.23;42.63;;
67310;Laerm;65444;51.438;5.982;2023-11-25T00:53:40;44.85;40.28;49.30;;
67310;Laerm;65444;51.438;5.982;2023-11-25T00:53:51;46.84;43.61;51.11;;
67310;Laerm;65444;51.438;5.982;2023-11-25T00:54:02;41.82;35.91;47.79;;
67310;Laerm;65444;51.438;5.982;2023-11-25T00:54:14;36.02;33.87;41.16;;
67310;Laerm;65444;51.438;5.982;2023-11-25T00:54:26;34.61;32.64;38.53;;
67310;Laerm;65444;51.438;5.982;2023-11-25T00:54:54;34.03;32.24;39.76;;
67310;Laerm;65444;51.438;5.982;2023-11-25T00:55:04;34.35;31.99;38.03;;
67310;Laerm;65444;51.438;5.982;2023-11-25T00:55:15;35.17;33.05;37.19;;
67310;Laerm;65444;51.438;5.982;2023-11-25T00:55:25;35.24;33.33;39.50;;
67310;Laerm;65444;51.438;5.982;2023-11-25T00:55:36;36.67;33.60;39.62;;
67310;Laerm;65444;51.438;5.982;2023-11-25T00:55:47;36.64;34.17;42.01;;
67310;Laerm;65444;51.438;5.982;2023-11-25T00:55:57;35.93;33.41;38.64;;
67310;Laerm;65444;51.438;5.982;2023-11-25T00:56:08;35.48;32.84;41.94;;
67310;Laerm;65444;51.438;5.982;2023-11-25T00:56:18;36.96;33.32;44.88;;
67310;Laerm;65444;51.438;5.982;2023-11-25T00:56:29;34.88;32.06;38.78;;
67310;Laerm;65444;51.438;5.982;2023-11-25T00:56:39;36.49;34.11;39.76;;
67310;Laerm;65444;51.438;5.982;2023-11-25T00:56:49;35.78;33.93;42.32;;
67310;Laerm;65444;51.438;5.982;2023-11-25T00:57:00;37.61;35.02;45.47;;
67310;Laerm;65444;51.438;5.982;2023-11-25T00:57:13;36.95;33.48;42.21;;
67310;Laerm;65444;51.438;5.982;2023-11-25T00:57:23;38.53;35.16;41.53;;
67310;Laerm;65444;51.438;5.982;2023-11-25T00:57:34;34.67;32.17;40.31;;
67310;Laerm;65444;51.438;5.982;2023-11-25T00:57:45;36.87;33.84;39.70;;
67310;Laerm;65444;51.438;5.982;2023-11-25T00:57:56;38.50;36.16;44.29;;
67310;Laerm;65444;51.438;5.982;2023-11-25T00:58:07;39.32;36.03;46.27;;
67310;Laerm;65444;51.438;5.982;2023-11-25T00:58:17;37.92;35.50;45.14;;
67310;Laerm;65444;51.438;5.982;2023-11-25T00:58:28;37.91;34.98;46.09;;
67310;Laerm;65444;51.438;5.982;2023-11-25T00:58:41;37.66;34.58;48.11;;
67310;Laerm;65444;51.438;5.982;2023-11-25T00:58:52;37.94;35.18;53.05;;
67310;Laerm;65444;51.438;5.982;2023-11-25T00:59:03;37.05;34.64;41.59;;
67310;Laerm;65444;51.438;5.982;2023-11-25T00:59:13;37.25;34.91;40.94;;
67310;Laerm;65444;51.438;5.982;2023-11-25T00:59:24;38.45;35.38;43.34;;
67310;Laerm;65444;51.438;5.982;2023-11-25T00:59:34;40.82;36.73;46.23;;
67310;Laerm;65444;51.438;5.982;2023-11-25T00:59:45;38.11;35.12;45.83;;
67310;Laerm;65444;51.438;5.982;2023-11-25T00:59:55;41.10;36.84;44.47;;
67310;Laerm;65444;51.438;5.982;2023-11-25T01:00:06;38.92;35.57;45.63;;
67310;Laerm;65444;51.438;5.982;2023-11-25T01:00:25;41.22;34.70;51.94;;
67310;Laerm;65444;51.438;5.982;2023-11-25T01:00:36;36.74;34.49;39.84;;
67310;Laerm;65444;51.438;5.982;2023-11-25T01:00:47;36.78;34.49;44.31;;
67310;Laerm;65444;51.438;5.982;2023-11-25T01:00:57;36.66;33.66;42.54;;
67310;Laerm;65444;51.438;5.982;2023-11-25T01:01:08;36.51;34.34;39.06;;
67310;Laerm;65444;51.438;5.982;2023-11-25T01:01:19;36.48;33.86;39.43;;
67310;Laerm;65444;51.438;5.982;2023-11-25T01:01:30;36.41;34.35;39.88;;
67310;Laerm;65444;51.438;5.982;2023-11-25T01:01:41;36.28;34.22;42.07;;
67310;Laerm;65444;51.438;5.982;2023-11-25T01:01:51;36.26;33.95;38.77;;
67310;Laerm;65444;51.438;5.982;2023-11-25T01:02:02;36.19;33.48;39.46;;
67310;Laerm;65444;51.438;5.982;2023-11-25T01:02:13;36.27;33.93;38.73;;
67310;Laerm;65444;51.438;5.982;2023-11-25T01:02:27;36.41;33.99;39.08;;
67310;Laerm;65444;51.438;5.982;2023-11-25T01:02:40;36.37;34.10;40.08;;
67310;Laerm;65444;51.438;5.982;2023-11-25T01:02:50;36.39;33.34;39.98;;
67310;Laerm;65444;51.438;5.982;2023-11-25T01:03:01;36.41;33.74;39.51;;
67310;Laerm;65444;51.438;5.982;2023-11-25T01:03:11;35.93;34.21;37.75;;
67310;Laerm;65444;51.438;5.982;2023-11-25T01:03:22;36.03;33.78;41.23;;
67310;Laerm;65444;51.438;5.982;2023-11-25T01:03:34;36.06;33.94;38.01;;
67310;Laerm;65444;51.438;5.982;2023-11-25T01:03:44;36.16;33.85;40.80;;
67310;Laerm;65444;51.438;5.982;2023-11-25T01:03:55;36.30;34.39;40.42;;
67310;Laerm;65444;51.438;5.982;2023-11-25T01:04:05;37.64;34.86;41.65;;
67310;Laerm;65444;51.438;5.982;2023-11-25T01:04:16;39.20;34.86;44.39;;
67310;Laerm;65444;51.438;5.982;2023-11-25T01:04:27;40.59;35.51;50.56;;
67310;Laerm;65444;51.438;5.982;2023-11-25T01:04:39;37.98;34.34;49.12;;
67310;Laerm;65444;51.438;5.982;2023-11-25T01:04:49;36.95;34.90;39.41;;
67310;Laerm;65444;51.438;5.982;2023-11-25T01:04:59;35.92;34.14;38.46;;
67310;Laerm;65444;51.438;5.982;2023-11-25T01:05:10;36.33;33.50;41.34;;
67310;Laerm;65444;51.438;5.982;2023-11-25T01:05:20;36.90;33.67;51.38;;
67310;Laerm;65444;51.438;5.982;2023-11-25T01:05:31;36.41;33.20;50.56;;
67310;Laerm;65444;51.438;5.982;2023-11-25T01:05:41;35.50;33.38;37.18;;
67310;Laerm;65444;51.438;5.982;2023-11-25T01:05:52;35.10;33.06;39.97;;
67310;Laerm;65444;51.438;5.982;2023-11-25T01:06:09;34.49;32.43;36.84;;
67310;Laerm;65444;51.438;5.982;2023-11-25T01:06:19;34.31;32.35;37.16;;
67310;Laerm;65444;51.438;5.982;2023-11-25T01:06:30;34.99;32.25;37.07;;
67310;Laerm;65444;51.438;5.982;2023-11-25T01:06:46;35.69;32.77;42.12;;
67310;Laerm;65444;51.438;5.982;2023-11-25T01:07:01;36.05;32.95;51.14;;
67310;Laerm;65444;51.438;5.982;2023-11-25T01:07:12;35.09;32.93;37.70;;
67310;Laerm;65444;51.438;5.982;2023-11-25T01:07:22;35.72;33.14;40.40;;
67310;Laerm;65444;51.438;5.982;2023-11-25T01:07:33;34.53;32.49;37.28;;
67310;Laerm;65444;51.438;5.982;2023-11-25T01:07:44;34.90;33.07;41.25;;
67310;Laerm;65444;51.438;5.982;2023-11-25T01:07:55;37.52;32.91;40.71;;
67310;Laerm;65444;51.438;5.982;2023-11-25T01:08:05;35.15;33.11;41.37;;
67310;Laerm;65444;51.438;5.982;2023-11-25T01:08:16;35.78;33.48;39.31;;
67310;Laerm;65444;51.438;5.982;2023-11-25T01:08:26;36.68;32.87;41.82;;
67310;Laerm;65444;51.438;5.982;2023-11-25T01:08:38;38.68;34.12;43.47;;
67310;Laerm;65444;51.438;5.982;2023-11-25T01:08:49;39.17;34.89;45.28;;
67310;Laerm;65444;51.438;5.982;2023-11-25T01:08:59;35.48;32.71;39.91;;
67310;Laerm;65444;51.438;5.982;2023-11-25T01:09:10;34.11;32.38;41.27;;
67310;Laerm;65444;51.438;5.982;2023-11-25T01:09:22;35.90;32.38;47.84;;
67310;Laerm;65444;51.438;5.982;2023-11-25T01:09:36;34.85;32.23;39.99;;
67310;Laerm;65444;51.438;5.982;2023-11-25T01:09:47;36.92;33.77;41.35;;